createdAt,value
2023-03-24T00:00:33.097Z,8.50
2023-03-24T00:03:02.975Z,8.50
2023-03-24T00:05:30.827Z,8.50
2023-03-24T00:08:02.238Z,8.50
2023-03-24T00:10:30.713Z,8.40
2023-03-24T00:12:58.583Z,8.40
2023-03-24T00:15:26.409Z,8.40
2023-03-24T00:17:56.138Z,8.40
2023-03-24T00:20:24.643Z,8.40
2023-03-24T00:22:57.331Z,8.40
2023-03-24T00:25:30.163Z,8.40
2023-03-24T00:27:58.041Z,8.40
2023-03-24T00:30:26.440Z,8.40
2023-03-24T00:32:54.214Z,8.40
2023-03-24T00:35:21.987Z,8.40
2023-03-24T00:37:52.261Z,8.40
2023-03-24T00:40:21.336Z,8.40
2023-03-24T00:42:50.895Z,8.40
2023-03-24T00:45:20.863Z,8.40
2023-03-24T00:47:50.494Z,8.40
2023-03-24T00:50:20.735Z,8.40
2023-03-24T00:52:49.368Z,8.40
2023-03-24T00:55:17.322Z,8.40
2023-03-24T00:57:50.052Z,8.40
2023-03-24T01:00:21.872Z,8.40
2023-03-24T01:02:54.059Z,8.30
2023-03-24T01:05:28.611Z,8.30
2023-03-24T01:08:03.382Z,8.30
2023-03-24T01:10:33.568Z,8.30
2023-03-24T01:13:01.887Z,8.20
2023-03-24T01:15:33.686Z,8.20
2023-03-24T01:18:04.251Z,8.20
2023-03-24T01:20:35.869Z,8.20
2023-03-24T01:23:07.927Z,8.20
2023-03-24T01:25:37.981Z,8.20
2023-03-24T01:28:05.414Z,8.20
2023-03-24T01:30:32.882Z,8.20
2023-03-24T01:33:00.765Z,8.20
2023-03-24T01:35:29.575Z,8.20
2023-03-24T01:37:58.223Z,8.20
2023-03-24T01:40:29.503Z,8.20
2023-03-24T01:42:58.138Z,8.10
2023-03-24T01:45:57.384Z,8.10
2023-03-24T01:48:42.054Z,8.10
2023-03-24T01:51:18.538Z,8.10
2023-03-24T01:54:08.195Z,8.10
2023-03-24T01:56:38.728Z,8.10
2023-03-24T01:59:16.881Z,8.10
2023-03-24T02:01:54.589Z,8.10
2023-03-24T02:04:44.419Z,8.10
2023-03-24T02:07:30.104Z,8.00
2023-03-24T02:09:57.713Z,8.00
2023-03-24T02:12:25.114Z,8.00
2023-03-24T02:14:54.436Z,8.00
2023-03-24T02:17:35.932Z,7.90
2023-03-24T02:20:10.590Z,8.00
2023-03-24T02:22:59.854Z,8.00
2023-03-24T02:25:56.363Z,8.00
2023-03-24T02:28:32.501Z,8.00
2023-03-24T02:31:06.573Z,8.00
2023-03-24T02:33:36.656Z,8.00
2023-03-24T02:36:41.889Z,8.00
2023-03-24T02:39:24.248Z,8.00
2023-03-24T02:42:04.077Z,8.10
2023-03-24T02:44:57.156Z,8.00
2023-03-24T02:47:42.604Z,8.00
2023-03-24T02:50:18.703Z,8.00
2023-03-24T02:52:53.415Z,8.00
2023-03-24T02:55:48.950Z,8.00
2023-03-24T02:58:32.487Z,8.00
2023-03-24T03:01:31.891Z,8.00
2023-03-24T03:04:37.511Z,8.00
2023-03-24T03:07:09.947Z,8.00
2023-03-24T03:09:42.931Z,7.90
2023-03-24T03:12:13.148Z,7.90
2023-03-24T03:14:45.977Z,8.00
2023-03-24T03:17:21.062Z,8.00
2023-03-24T03:19:55.484Z,8.00
2023-03-24T03:22:31.565Z,8.00
2023-03-24T03:25:03.532Z,8.00
2023-03-24T03:27:39.572Z,8.00
2023-03-24T03:30:14.161Z,8.00
2023-03-24T03:32:45.804Z,8.00
2023-03-24T03:35:36.495Z,8.00
2023-03-24T03:38:19.550Z,8.00
2023-03-24T03:40:56.673Z,8.10
2023-03-24T03:43:30.548Z,8.10
2023-03-24T03:46:00.124Z,8.10
2023-03-24T03:48:34.386Z,8.10
2023-03-24T03:51:13.026Z,8.10
2023-03-24T03:53:58.385Z,8.00
2023-03-24T03:56:29.434Z,8.00
2023-03-24T03:59:34.056Z,8.00
2023-03-24T04:02:56.363Z,8.00
2023-03-24T04:05:42.854Z,8.00
2023-03-24T04:08:37.602Z,8.00
2023-03-24T04:11:19.652Z,8.00
2023-03-24T04:14:42.902Z,8.00
2023-03-24T04:17:46.068Z,8.00
2023-03-24T04:20:38.435Z,8.00
2023-03-24T04:23:54.370Z,8.00
2023-03-24T04:27:03.553Z,7.90
2023-03-24T04:30:08.264Z,8.00
2023-03-24T04:32:52.481Z,7.90
2023-03-24T04:35:34.030Z,7.90
2023-03-24T04:38:27.859Z,8.00
2023-03-24T04:41:18.092Z,8.00
2023-03-24T04:43:55.189Z,8.00
2023-03-24T04:46:23.742Z,8.00
2023-03-24T04:49:10.819Z,8.00
2023-03-24T04:51:39.760Z,8.00
2023-03-24T04:54:13.209Z,8.00
2023-03-24T04:56:51.061Z,8.00
2023-03-24T04:59:34.750Z,7.90
2023-03-24T05:02:04.247Z,7.90
2023-03-24T05:04:50.355Z,7.90
2023-03-24T05:07:22.665Z,7.90
2023-03-24T05:09:53.638Z,7.80
2023-03-24T05:12:20.896Z,7.80
2023-03-24T05:15:09.161Z,7.80
2023-03-24T05:17:37.014Z,7.80
2023-03-24T05:20:10.868Z,7.80
2023-03-24T05:22:40.633Z,7.70
2023-03-24T05:25:08.766Z,7.70
2023-03-24T05:27:36.193Z,7.70
2023-03-24T05:30:16.558Z,7.70
2023-03-24T05:32:46.115Z,7.70
2023-03-24T05:35:15.008Z,7.70
2023-03-24T05:37:43.693Z,7.60
2023-03-24T05:40:11.660Z,7.60
2023-03-24T05:42:59.125Z,7.60
2023-03-24T05:45:31.448Z,7.60
2023-03-24T05:48:00.633Z,7.60
2023-03-24T05:50:42.500Z,7.50
2023-03-24T05:53:09.898Z,7.50
2023-03-24T05:55:58.865Z,7.60
2023-03-24T05:58:46.152Z,7.60
2023-03-24T06:01:13.434Z,7.60
2023-03-24T06:03:40.957Z,7.60
2023-03-24T06:06:17.068Z,7.50
2023-03-24T06:08:47.648Z,7.60
2023-03-24T06:11:16.888Z,7.50
2023-03-24T06:14:03.293Z,7.50
2023-03-24T06:16:39.136Z,7.50
2023-03-24T06:19:07.243Z,7.50
2023-03-24T06:21:51.886Z,7.40
2023-03-24T06:24:23.769Z,7.40
2023-03-24T06:26:52.173Z,7.40
2023-03-24T06:29:19.399Z,7.30
2023-03-24T06:31:48.757Z,7.30
2023-03-24T06:34:16.477Z,7.40
2023-03-24T06:36:48.453Z,7.30
2023-03-24T06:39:15.748Z,7.30
2023-03-24T06:41:43.303Z,7.30
2023-03-24T06:44:10.528Z,7.30
2023-03-24T06:46:37.882Z,7.30
2023-03-24T06:49:05.352Z,7.30
2023-03-24T06:51:32.984Z,7.30
2023-03-24T06:54:00.382Z,7.30
2023-03-24T06:56:27.856Z,7.30
2023-03-24T06:58:58.822Z,7.30
2023-03-24T07:01:35.379Z,7.30
2023-03-24T07:04:17.668Z,7.30
2023-03-24T07:07:01.951Z,7.30
2023-03-24T07:09:35.366Z,7.40
2023-03-24T07:12:03.869Z,7.40
2023-03-24T07:14:31.147Z,7.50
2023-03-24T07:16:59.536Z,7.50
2023-03-24T07:19:27.803Z,7.50
2023-03-24T07:22:20.082Z,7.60
2023-03-24T07:25:14.495Z,7.60
2023-03-24T07:27:56.288Z,7.60
2023-03-24T07:30:37.183Z,7.70
2023-03-24T07:33:11.003Z,7.70
2023-03-24T07:35:42.071Z,7.70
2023-03-24T07:38:10.756Z,7.70
2023-03-24T07:40:38.392Z,7.80
2023-03-24T07:43:09.158Z,7.80
2023-03-24T07:45:55.039Z,7.80
2023-03-24T07:48:22.413Z,7.80
2023-03-24T07:50:53.259Z,7.90
2023-03-24T07:53:39.367Z,7.90
2023-03-24T07:56:08.087Z,7.90
2023-03-24T07:58:40.221Z,7.90
2023-03-24T08:01:17.471Z,7.90
2023-03-24T08:03:49.628Z,7.90
2023-03-24T08:06:17.255Z,8.00
2023-03-24T08:08:49.811Z,8.00
2023-03-24T08:11:17.168Z,8.00
2023-03-24T08:13:44.384Z,8.00
2023-03-24T08:16:11.735Z,8.10
2023-03-24T08:18:39.378Z,8.10
2023-03-24T08:21:06.935Z,8.10
2023-03-24T08:23:34.487Z,8.20
2023-03-24T08:26:02.748Z,8.20
2023-03-24T08:28:30.337Z,8.30
2023-03-24T08:30:57.847Z,8.30
2023-03-24T08:33:25.428Z,8.40
2023-03-24T08:35:57.937Z,8.50
2023-03-24T08:38:30.901Z,8.50
2023-03-24T08:41:06.959Z,8.50
2023-03-24T08:43:36.483Z,8.60
2023-03-24T08:46:07.159Z,8.60
2023-03-24T08:48:37.253Z,8.70
2023-03-24T08:51:15.174Z,8.70
2023-03-24T08:53:43.567Z,8.80
2023-03-24T08:56:11.202Z,8.80
2023-03-24T08:58:38.663Z,8.90
2023-03-24T09:01:06.276Z,8.90
2023-03-24T09:03:33.565Z,9.00
2023-03-24T09:06:01.229Z,9.00
2023-03-24T09:08:28.571Z,9.10
2023-03-24T09:10:55.922Z,9.10
2023-03-24T09:13:23.598Z,9.20
2023-03-24T09:15:54.788Z,9.20
2023-03-24T09:18:22.413Z,9.20
2023-03-24T09:20:50.480Z,9.20
2023-03-24T09:23:19.228Z,9.30
2023-03-24T09:25:48.571Z,9.30
2023-03-24T09:28:16.331Z,9.30
2023-03-24T09:30:44.417Z,9.30
2023-03-24T09:33:12.181Z,9.40
2023-03-24T09:35:39.908Z,9.40
2023-03-24T09:38:07.582Z,9.40
2023-03-24T09:40:39.886Z,9.50
2023-03-24T09:43:08.921Z,9.50
2023-03-24T09:45:50.338Z,9.50
2023-03-24T09:48:24.607Z,9.60
2023-03-24T09:51:11.051Z,9.60
2023-03-24T09:53:50.412Z,9.70
2023-03-24T09:56:20.994Z,9.70
2023-03-24T09:59:08.568Z,9.80
2023-03-24T10:01:38.803Z,9.90
2023-03-24T10:04:14.844Z,9.90
2023-03-24T10:06:42.567Z,10.00
2023-03-24T10:09:36.735Z,10.00
2023-03-24T10:12:31.639Z,10.00
2023-03-24T10:15:07.796Z,10.00
2023-03-24T10:17:52.009Z,10.10
2023-03-24T10:20:49.103Z,10.10
2023-03-24T10:23:19.304Z,10.10
2023-03-24T10:26:09.486Z,10.20
2023-03-24T10:29:04.766Z,10.30
2023-03-24T10:31:35.020Z,10.30
2023-03-24T10:34:02.242Z,10.40
2023-03-24T10:36:31.104Z,10.40
2023-03-24T10:39:01.878Z,10.50
2023-03-24T10:41:36.431Z,10.50
2023-03-24T10:44:03.836Z,10.60
2023-03-24T10:46:32.252Z,10.60
2023-03-24T10:49:16.232Z,10.60
2023-03-24T10:52:01.438Z,10.60
2023-03-24T10:54:32.878Z,10.60
2023-03-24T10:57:03.915Z,10.70
2023-03-24T10:59:38.761Z,10.60
2023-03-24T11:02:24.544Z,10.60
2023-03-24T11:04:57.240Z,10.60
2023-03-24T11:07:37.260Z,10.60
2023-03-24T11:10:27.843Z,10.70
2023-03-24T11:12:55.054Z,10.70
2023-03-24T11:15:30.558Z,10.70
2023-03-24T11:18:16.850Z,10.80
2023-03-24T11:20:45.635Z,10.80
2023-03-24T11:23:31.138Z,10.80
2023-03-24T11:26:07.535Z,10.90
2023-03-24T11:28:46.151Z,11.00
2023-03-24T11:31:24.733Z,11.00
2023-03-24T11:34:44.550Z,11.10
2023-03-24T11:37:23.132Z,11.20
2023-03-24T11:40:26.459Z,11.30
2023-03-24T11:43:04.276Z,11.30
2023-03-24T11:45:37.353Z,11.40
2023-03-24T11:48:28.906Z,11.40
2023-03-24T11:53:47.006Z,11.60
2023-03-24T11:56:58.461Z,11.60
2023-03-24T11:59:58.279Z,11.60
2023-03-24T12:02:47.271Z,11.60
2023-03-24T12:05:27.569Z,11.60
2023-03-24T12:08:27.668Z,11.60
2023-03-24T12:11:07.356Z,11.60
2023-03-24T12:13:39.055Z,11.50
2023-03-24T12:16:36.746Z,11.50
2023-03-24T12:19:27.675Z,11.30
2023-03-24T12:22:18.522Z,11.20
2023-03-24T12:24:54.989Z,11.20
2023-03-24T12:27:37.831Z,11.20
2023-03-24T12:30:28.929Z,11.20
2023-03-24T12:33:08.503Z,11.20
2023-03-24T12:35:45.093Z,11.20
2023-03-24T12:38:40.085Z,11.20
2023-03-24T12:41:30.375Z,11.20
2023-03-24T12:44:16.581Z,11.20
2023-03-24T12:47:02.662Z,11.10
2023-03-24T12:49:54.109Z,11.10
2023-03-24T12:52:24.132Z,11.10
2023-03-24T12:55:10.468Z,11.10
2023-03-24T12:57:58.078Z,11.10
2023-03-24T13:00:31.363Z,11.20
2023-03-24T13:03:04.210Z,11.20
2023-03-24T13:05:34.312Z,11.20
2023-03-24T13:08:13.772Z,11.10
2023-03-24T13:10:42.182Z,11.00
2023-03-24T13:13:45.096Z,10.90
2023-03-24T13:16:19.408Z,10.80
2023-03-24T13:18:50.745Z,10.70
2023-03-24T13:21:24.845Z,10.70
2023-03-24T13:24:08.757Z,10.60
2023-03-24T13:26:58.844Z,10.50
2023-03-24T13:29:38.497Z,10.50
2023-03-24T13:32:22.614Z,10.50
2023-03-24T13:34:59.898Z,10.40
2023-03-24T13:37:46.776Z,10.40
2023-03-24T13:40:26.024Z,10.40
2023-03-24T13:42:56.239Z,10.30
2023-03-24T13:45:30.855Z,10.30
2023-03-24T13:48:10.038Z,10.30
2023-03-24T13:51:03.459Z,10.30
2023-03-24T13:53:43.775Z,10.30
2023-03-24T13:56:21.197Z,10.30
2023-03-24T13:58:59.745Z,10.30
2023-03-24T14:01:36.110Z,10.30
2023-03-24T14:04:26.544Z,10.40
2023-03-24T14:06:55.941Z,10.30
2023-03-24T14:09:27.283Z,10.30
2023-03-24T14:12:07.392Z,10.30
2023-03-24T14:14:56.399Z,10.30
2023-03-24T14:17:23.677Z,10.30
2023-03-24T14:20:02.845Z,10.40
2023-03-24T14:22:41.916Z,10.40
2023-03-24T14:25:15.413Z,10.40
2023-03-24T14:27:47.785Z,10.50
2023-03-24T14:30:30.652Z,10.50
2023-03-24T14:33:00.512Z,10.60
2023-03-24T14:35:37.142Z,10.60
2023-03-24T14:38:17.677Z,10.70
2023-03-24T14:40:48.966Z,10.80
2023-03-24T14:43:29.716Z,10.90
2023-03-24T14:46:02.117Z,11.00
2023-03-24T14:48:53.857Z,11.10
2023-03-24T14:51:25.821Z,11.20
2023-03-24T14:53:58.118Z,11.30
2023-03-24T14:56:33.230Z,11.30
2023-03-24T14:59:05.732Z,11.30
2023-03-24T15:01:35.040Z,11.00
2023-03-24T15:04:11.355Z,10.80
2023-03-24T15:06:48.913Z,10.50
2023-03-24T15:09:18.130Z,10.30
2023-03-24T15:11:47.892Z,10.10
2023-03-24T15:14:26.425Z,10.10
2023-03-24T15:17:25.898Z,10.00
2023-03-24T15:19:54.954Z,10.00
2023-03-24T15:22:22.092Z,10.00
2023-03-24T15:24:52.218Z,10.00
2023-03-24T15:27:29.146Z,10.00
2023-03-24T15:29:59.429Z,9.90
2023-03-24T15:32:32.118Z,9.90
2023-03-24T15:35:05.960Z,9.90
2023-03-24T15:37:41.492Z,9.90
2023-03-24T15:40:30.554Z,10.00
2023-03-24T15:43:03.925Z,10.00
2023-03-24T15:45:43.769Z,10.00
2023-03-24T15:48:18.861Z,9.90
2023-03-24T15:50:57.279Z,9.90
2023-03-24T15:53:27.950Z,9.90
2023-03-24T15:56:06.535Z,9.90
2023-03-24T15:58:47.944Z,9.90
2023-03-24T16:01:27.471Z,9.90
2023-03-24T16:03:55.376Z,9.90
2023-03-24T16:06:30.157Z,9.90
2023-03-24T16:09:04.921Z,9.80
2023-03-24T16:11:32.102Z,9.70
2023-03-24T16:13:59.524Z,9.70
2023-03-24T16:16:36.405Z,9.60
2023-03-24T16:19:04.437Z,9.60
2023-03-24T16:21:34.429Z,9.60
2023-03-24T16:24:02.510Z,9.60
2023-03-24T16:26:33.759Z,9.70
2023-03-24T16:29:19.001Z,9.80
2023-03-24T16:31:51.415Z,9.80
2023-03-24T16:34:21.245Z,9.80
2023-03-24T16:36:50.014Z,9.90
2023-03-24T16:39:23.245Z,9.90
2023-03-24T16:41:51.078Z,9.90
2023-03-24T16:44:18.567Z,9.90
2023-03-24T16:46:47.229Z,9.90
2023-03-24T16:49:16.650Z,9.90
2023-03-24T16:51:44.874Z,9.90
2023-03-24T16:54:12.273Z,9.90
2023-03-24T16:56:40.564Z,9.80
2023-03-24T16:59:09.284Z,9.80
2023-03-24T17:01:43.302Z,9.80
2023-03-24T17:04:16.411Z,9.80
2023-03-24T17:06:49.346Z,9.80
2023-03-24T17:09:17.471Z,9.80
2023-03-24T17:11:58.567Z,9.80
2023-03-24T17:14:25.771Z,9.90
2023-03-24T17:16:53.875Z,9.90
2023-03-24T17:19:23.662Z,9.80
2023-03-24T17:21:58.266Z,9.90
2023-03-24T17:24:25.643Z,9.80
2023-03-24T17:26:53.014Z,9.80
2023-03-24T17:29:20.497Z,9.80
2023-03-24T17:31:47.718Z,9.80
2023-03-24T17:34:21.525Z,9.80
2023-03-24T17:36:50.853Z,9.80
2023-03-24T17:39:19.176Z,9.70
2023-03-24T17:41:46.358Z,9.60
2023-03-24T17:44:13.826Z,9.60
2023-03-24T17:46:41.543Z,9.60
2023-03-24T17:49:09.070Z,9.70
2023-03-24T17:51:36.331Z,9.70
2023-03-24T17:54:04.304Z,9.70
2023-03-24T17:56:32.163Z,9.60
2023-03-24T17:58:59.486Z,9.60
2023-03-24T18:01:29.612Z,9.60
2023-03-24T18:03:57.778Z,9.60
2023-03-24T18:06:25.291Z,9.50
2023-03-24T18:08:52.727Z,9.60
2023-03-24T18:11:20.194Z,9.60
2023-03-24T18:13:47.676Z,9.60
2023-03-24T18:16:21.385Z,9.60
2023-03-24T18:18:50.770Z,9.60
2023-03-24T18:21:18.860Z,9.60
2023-03-24T18:23:47.139Z,9.60
2023-03-24T18:26:15.892Z,9.60
2023-03-24T18:28:45.789Z,9.60
2023-03-24T18:31:18.951Z,9.60
2023-03-24T18:33:50.494Z,9.60
2023-03-24T18:36:21.363Z,9.60
2023-03-24T18:38:49.346Z,9.60
2023-03-24T18:41:18.686Z,9.60
2023-03-24T18:43:48.290Z,9.60
2023-03-24T18:46:15.801Z,9.60
2023-03-24T18:48:43.702Z,9.60
2023-03-24T18:51:11.585Z,9.60
2023-03-24T18:53:39.265Z,9.50
2023-03-24T18:56:08.434Z,9.50
2023-03-24T18:58:38.290Z,9.50
2023-03-24T19:01:11.277Z,9.50
2023-03-24T19:03:41.001Z,9.50
2023-03-24T19:06:09.457Z,9.50
2023-03-24T19:08:41.209Z,9.50
2023-03-24T19:11:09.619Z,9.40
2023-03-24T19:13:37.420Z,9.40
2023-03-24T19:16:06.051Z,9.40
2023-03-24T19:18:33.201Z,9.40
2023-03-24T19:21:02.137Z,9.30
2023-03-24T19:23:30.611Z,9.30
2023-03-24T19:25:57.944Z,9.30
2023-03-24T19:28:29.993Z,9.20
2023-03-24T19:30:59.363Z,9.20
2023-03-24T19:33:27.486Z,9.20
2023-03-24T19:35:54.958Z,9.10
2023-03-24T19:38:24.177Z,9.10
2023-03-24T19:40:53.893Z,9.10
2023-03-24T19:43:25.417Z,9.00
2023-03-24T19:45:56.252Z,9.00
2023-03-24T19:48:23.708Z,9.00
2023-03-24T19:50:52.695Z,9.00
2023-03-24T19:53:21.234Z,9.00
2023-03-24T19:55:49.195Z,8.90
2023-03-24T19:58:17.573Z,8.90
2023-03-24T20:00:44.940Z,8.90
2023-03-24T20:03:12.305Z,8.90
2023-03-24T20:05:39.689Z,8.90
2023-03-24T20:08:07.032Z,8.80
2023-03-24T20:10:37.187Z,8.80
2023-03-24T20:13:04.511Z,8.80
2023-03-24T20:15:31.809Z,8.80
2023-03-24T20:17:59.464Z,8.70
2023-03-24T20:20:26.657Z,8.60
2023-03-24T20:22:53.756Z,8.60
2023-03-24T20:25:20.953Z,8.60
2023-03-24T20:27:48.384Z,8.50
2023-03-24T20:30:17.562Z,8.50
2023-03-24T20:32:44.905Z,8.30
2023-03-24T20:35:12.434Z,8.30
2023-03-24T20:37:39.624Z,8.20
2023-03-24T20:40:09.781Z,8.20
2023-03-24T20:42:37.833Z,8.20
2023-03-24T20:45:07.349Z,8.10
2023-03-24T20:47:36.638Z,8.10
2023-03-24T20:50:06.134Z,8.10
2023-03-24T20:52:33.410Z,8.10
2023-03-24T20:55:01.701Z,8.00
2023-03-24T20:57:30.261Z,8.00
2023-03-24T20:59:58.004Z,8.00
2023-03-24T21:02:25.614Z,8.00
2023-03-24T21:04:53.048Z,8.10
2023-03-24T21:07:20.608Z,8.00
2023-03-24T21:09:47.756Z,8.00
2023-03-24T21:12:14.895Z,8.00
2023-03-24T21:14:42.693Z,8.00
2023-03-24T21:17:10.088Z,8.00
2023-03-24T21:19:37.482Z,8.00
2023-03-24T21:22:04.826Z,8.00
2023-03-24T21:24:32.107Z,8.00
2023-03-24T21:27:00.983Z,8.00
2023-03-24T21:29:28.520Z,8.00
2023-03-24T21:31:55.747Z,8.00
2023-03-24T21:34:22.877Z,8.10
2023-03-24T21:36:53.664Z,8.10
2023-03-24T21:39:20.831Z,8.10
2023-03-24T21:41:48.063Z,8.10
2023-03-24T21:44:15.405Z,8.10
2023-03-24T21:46:43.143Z,8.10
2023-03-24T21:49:11.172Z,8.10
2023-03-24T21:51:38.488Z,8.00
2023-03-24T21:54:09.912Z,8.00
2023-03-24T21:56:38.380Z,7.90
2023-03-24T21:59:05.807Z,7.80
2023-03-24T22:01:36.109Z,7.80
2023-03-24T22:04:04.146Z,7.70
2023-03-24T22:06:37.981Z,7.60
2023-03-24T22:09:07.332Z,7.60
2023-03-24T22:11:36.454Z,7.60
2023-03-24T22:14:04.122Z,7.50
2023-03-24T22:16:33.192Z,7.50
2023-03-24T22:19:01.777Z,7.50
2023-03-24T22:21:29.197Z,7.40
2023-03-24T22:23:56.498Z,7.30
2023-03-24T22:26:23.728Z,7.30
2023-03-24T22:28:51.137Z,7.20
2023-03-24T22:31:18.441Z,7.20
2023-03-24T22:33:47.680Z,7.20
2023-03-24T22:36:14.874Z,7.10
2023-03-24T22:38:42.523Z,7.10
2023-03-24T22:41:12.788Z,7.10
2023-03-24T22:43:41.776Z,7.00
2023-03-24T22:46:10.463Z,7.00
2023-03-24T22:48:40.988Z,7.00
2023-03-24T22:51:08.979Z,7.00
2023-03-24T22:53:36.163Z,7.10
2023-03-24T22:56:03.719Z,7.00
2023-03-24T22:58:30.827Z,7.10
2023-03-24T23:00:57.894Z,7.10
2023-03-24T23:03:25.202Z,7.10
2023-03-24T23:05:52.683Z,7.10
2023-03-24T23:08:20.211Z,7.10
2023-03-24T23:10:47.781Z,7.00
2023-03-24T23:13:17.199Z,7.00
2023-03-24T23:15:47.950Z,7.00
2023-03-24T23:18:15.901Z,7.00
2023-03-24T23:20:43.095Z,7.00
2023-03-24T23:23:11.000Z,7.00
2023-03-24T23:25:43.655Z,6.90
2023-03-24T23:28:12.161Z,6.90
2023-03-24T23:30:40.613Z,6.90
2023-03-24T23:33:08.093Z,6.90
2023-03-24T23:35:37.578Z,7.00
2023-03-24T23:38:06.873Z,6.90
2023-03-24T23:40:35.401Z,7.00
2023-03-24T23:43:02.826Z,6.90
2023-03-24T23:45:30.024Z,7.00
2023-03-24T23:47:57.330Z,6.90
2023-03-24T23:50:24.620Z,6.90
2023-03-24T23:52:51.785Z,6.90
2023-03-24T23:55:21.074Z,6.90
2023-03-24T23:57:49.329Z,6.90
